Check out our new PWSWeather beta!
PWSweather.com
Personal Weather Stations
Station Observations
56KZ2SLOW
Millidgeville, Saint John, NB

MillidgevilleSaint John, NB

Lat: 45.288024, Lon: -66.116791

Elevation: 75

Station Type: Acurite 5-in-1

https://weather.patenteux.page/camera

Latest ConditionsUpdated 10:46:01 PM GMT-04:56 Thursday, Feb 27, 2020
Currently Today's Max Today's Min Today's Average
Temperature 34.5°F1.4°C 37.4°F3.0°C 29.5°F-1.4°C 32.8°F0.4°C
Dew Point 34.3°F1.3°C 35.5°F1.9°C 26.6°F-3.0°C 30.3°F-0.9°C
Winds 6.0 mph ESE9.7 kmh ESE 19.0 mph -30.6 kmh - - 5.5 mph 8.9 kmh
Wind Gusts -- -- - -
Humidity 99% 99% 73% 91%
Pressure 29.28 in991.5 mb 30.12 in1020.0 mb 29.27 in991.2 mb -
Precipitation - 0.01 in0.3 mm - -
Hour Temp Dew Point Humidity Winds Wind Gusts Pressure Precip Precip Rate Daily Precip Total
10:46 PM 34.5°F1.4°C 34.3°F1.3°C 99% 6.0 mph ESE9.7 kmh ESE -- 29.28 in991.5 mb 0.00 in0.0 mm 0.00 in0.0 mm 0.01 in0.3 mm
10:41 PM 34.5°F1.4°C 34.3°F1.3°C 99% 7.0 mph ESE11.3 kmh ESE -- 29.28 in991.5 mb 0.00 in0.0 mm 0.00 in0.0 mm 0.01 in0.3 mm
10:36 PM 34.5°F1.4°C 34.3°F1.3°C 99% 2.0 mph SW3.2 kmh SW -- 29.28 in991.5 mb 0.00 in0.0 mm 0.00 in0.0 mm 0.01 in0.3 mm
10:31 PM 34.7°F1.5°C 34.4°F1.3°C 99% 1.0 mph NE1.6 kmh NE -- 29.28 in991.5 mb 0.00 in0.0 mm 0.00 in0.0 mm 0.01 in0.3 mm
10:26 PM 34.7°F1.5°C 34.4°F1.3°C 99% 5.0 mph NE8.0 kmh NE -- 29.28 in991.5 mb 0.00 in0.0 mm 0.00 in0.0 mm 0.01 in0.3 mm
10:21 PM 34.7°F1.5°C 34.4°F1.3°C 99% 5.0 mph NW8.0 kmh NW -- 29.28 in991.5 mb 0.00 in0.0 mm 0.00 in0.0 mm 0.01 in0.3 mm
10:16 PM 34.7°F1.5°C 34.4°F1.3°C 99% 2.0 mph WNW3.2 kmh WNW -- 29.28 in991.5 mb 0.00 in0.0 mm 0.00 in0.0 mm 0.01 in0.3 mm
10:11 PM 35.1°F1.7°C 34.8°F1.6°C 99% 4.0 mph NE6.4 kmh NE -- 29.28 in991.5 mb 0.00 in0.0 mm 0.00 in0.0 mm 0.01 in0.3 mm
10:06 PM 35.2°F1.8°C 35.0°F1.7°C 99% 6.0 mph W9.7 kmh W -- 29.28 in991.5 mb 0.00 in0.0 mm 0.00 in0.0 mm 0.01 in0.3 mm
10:01 PM 35.4°F1.9°C 35.2°F1.8°C 99% 6.0 mph SW9.7 kmh SW -- 29.28 in991.5 mb 0.00 in0.0 mm 0.00 in0.0 mm 0.01 in0.3 mm
09:56 PM 35.6°F2.0°C 35.3°F1.8°C 99% 5.0 mph NNW8.0 kmh NNW -- 29.28 in991.5 mb 0.00 in0.0 mm 0.00 in0.0 mm 0.01 in0.3 mm
09:51 PM 35.8°F2.1°C 35.5°F1.9°C 99% 4.0 mph W6.4 kmh W -- 29.28 in991.5 mb 0.00 in0.0 mm 0.00 in0.0 mm 0.01 in0.3 mm
09:46 PM 35.8°F2.1°C 35.5°F1.9°C 99% 5.0 mph SW8.0 kmh SW -- 29.28 in991.5 mb 0.00 in0.0 mm 0.00 in0.0 mm 0.01 in0.3 mm
09:41 PM 35.6°F2.0°C 35.3°F1.8°C 99% 4.0 mph SE6.4 kmh SE -- 29.27 in991.2 mb 0.00 in0.0 mm 0.00 in0.0 mm 0.01 in0.3 mm
09:36 PM 35.6°F2.0°C 35.3°F1.8°C 99% 6.0 mph E9.7 kmh E -- 29.28 in991.5 mb 0.00 in0.0 mm 0.00 in0.0 mm 0.01 in0.3 mm
09:31 PM 35.2°F1.8°C 35.0°F1.7°C 99% 6.0 mph SE9.7 kmh SE -- 29.28 in991.5 mb 0.00 in0.0 mm 0.00 in0.0 mm 0.01 in0.3 mm
09:26 PM 34.3°F1.3°C 34.1°F1.2°C 99% 8.0 mph ESE12.9 kmh ESE -- 29.28 in991.5 mb 0.00 in0.0 mm 0.00 in0.0 mm 0.01 in0.3 mm
09:21 PM 34.2°F1.2°C 33.9°F1.1°C 99% 6.0 mph SW9.7 kmh SW -- 29.28 in991.5 mb 0.00 in0.0 mm 0.00 in0.0 mm 0.01 in0.3 mm
09:16 PM 34.0°F1.1°C 33.7°F0.9°C 99% 10.0 mph WNW16.1 kmh WNW -- 29.28 in991.5 mb 0.00 in0.0 mm 0.00 in0.0 mm 0.01 in0.3 mm
09:11 PM 33.6°F0.9°C 33.4°F0.8°C 99% 6.0 mph ESE9.7 kmh ESE -- 29.28 in991.5 mb 0.00 in0.0 mm 0.00 in0.0 mm 0.01 in0.3 mm
09:06 PM 33.3°F0.7°C 33.0°F0.6°C 99% 6.0 mph E9.7 kmh E -- 29.28 in991.5 mb 0.00 in0.0 mm 0.00 in0.0 mm 0.01 in0.3 mm
09:01 PM 33.1°F0.6°C 32.8°F0.4°C 99% 7.0 mph SE11.3 kmh SE -- 29.28 in991.5 mb 0.00 in0.0 mm 0.00 in0.0 mm 0.01 in0.3 mm
08:56 PM 33.1°F0.6°C 32.8°F0.4°C 99% 9.0 mph ESE14.5 kmh ESE -- 29.29 in991.9 mb 0.00 in0.0 mm 0.00 in0.0 mm 0.01 in0.3 mm
08:51 PM 33.1°F0.6°C 32.8°F0.4°C 99% 6.0 mph SSW9.7 kmh SSW -- 29.29 in991.9 mb 0.00 in0.0 mm 0.00 in0.0 mm 0.01 in0.3 mm
08:46 PM 33.3°F0.7°C 33.0°F0.6°C 99% 7.0 mph SSE11.3 kmh SSE -- 29.29 in991.9 mb 0.00 in0.0 mm 0.00 in0.0 mm 0.01 in0.3 mm
08:41 PM 33.3°F0.7°C 33.0°F0.6°C 99% 13.0 mph SSE20.9 kmh SSE -- 29.29 in991.9 mb 0.00 in0.0 mm 0.00 in0.0 mm 0.01 in0.3 mm
08:36 PM 33.3°F0.7°C 33.0°F0.6°C 99% 11.0 mph ESE17.7 kmh ESE -- 29.29 in991.9 mb 0.00 in0.0 mm 0.00 in0.0 mm 0.01 in0.3 mm
08:31 PM 33.3°F0.7°C 33.0°F0.6°C 99% 5.0 mph SE8.0 kmh SE -- 29.29 in991.9 mb 0.00 in0.0 mm 0.00 in0.0 mm 0.01 in0.3 mm
08:26 PM 33.1°F0.6°C 32.8°F0.4°C 99% 5.0 mph ESE8.0 kmh ESE -- 29.29 in991.9 mb 0.00 in0.0 mm 0.00 in0.0 mm 0.01 in0.3 mm
08:21 PM 32.9°F0.5°C 32.6°F0.3°C 99% 4.0 mph ESE6.4 kmh ESE -- 29.29 in991.9 mb 0.00 in0.0 mm 0.00 in0.0 mm 0.01 in0.3 mm
08:16 PM 32.9°F0.5°C 32.6°F0.3°C 99% 3.0 mph ESE4.8 kmh ESE -- 29.29 in991.9 mb 0.00 in0.0 mm 0.00 in0.0 mm 0.01 in0.3 mm
08:11 PM 32.9°F0.5°C 32.6°F0.3°C 99% 5.0 mph E8.0 kmh E -- 29.30 in992.2 mb 0.00 in0.0 mm 0.00 in0.0 mm 0.01 in0.3 mm
08:06 PM 33.1°F0.6°C 32.8°F0.4°C 99% 4.0 mph SSW6.4 kmh SSW -- 29.30 in992.2 mb 0.00 in0.0 mm 0.00 in0.0 mm 0.01 in0.3 mm
08:01 PM 33.1°F0.6°C 32.8°F0.4°C 99% 6.0 mph SSE9.7 kmh SSE -- 29.30 in992.2 mb 0.00 in0.0 mm 0.00 in0.0 mm 0.01 in0.3 mm
07:56 PM 33.1°F0.6°C 32.8°F0.4°C 99% 9.0 mph SSE14.5 kmh SSE -- 29.30 in992.2 mb 0.00 in0.0 mm 0.00 in0.0 mm 0.01 in0.3 mm
07:51 PM 32.9°F0.5°C 32.6°F0.3°C 99% 5.0 mph E8.0 kmh E -- 29.30 in992.2 mb 0.00 in0.0 mm 0.00 in0.0 mm 0.01 in0.3 mm
07:46 PM 32.9°F0.5°C 32.6°F0.3°C 99% 7.0 mph ESE11.3 kmh ESE -- 29.31 in992.6 mb 0.00 in0.0 mm 0.00 in0.0 mm 0.01 in0.3 mm
07:41 PM 32.9°F0.5°C 32.6°F0.3°C 99% 8.0 mph ESE12.9 kmh ESE -- 29.31 in992.6 mb 0.00 in0.0 mm 0.00 in0.0 mm 0.01 in0.3 mm
07:36 PM 32.7°F0.4°C 32.5°F0.3°C 99% 7.0 mph ENE11.3 kmh ENE -- 29.32 in992.9 mb 0.00 in0.0 mm 0.00 in0.0 mm 0.01 in0.3 mm
07:31 PM 32.7°F0.4°C 32.5°F0.3°C 99% 3.0 mph ESE4.8 kmh ESE -- 29.33 in993.2 mb 0.00 in0.0 mm 0.00 in0.0 mm 0.01 in0.3 mm
07:26 PM 32.5°F0.3°C 32.3°F0.2°C 99% 1.0 mph NE1.6 kmh NE -- 29.33 in993.2 mb 0.00 in0.0 mm 0.00 in0.0 mm 0.01 in0.3 mm
07:21 PM 32.5°F0.3°C 32.3°F0.2°C 99% 2.0 mph E3.2 kmh E -- 29.33 in993.2 mb 0.00 in0.0 mm 0.00 in0.0 mm 0.01 in0.3 mm
07:16 PM 32.5°F0.3°C 32.3°F0.2°C 99% 6.0 mph ESE9.7 kmh ESE -- 29.33 in993.2 mb 0.00 in0.0 mm 0.00 in0.0 mm 0.01 in0.3 mm
07:11 PM 32.5°F0.3°C 32.3°F0.2°C 99% 4.0 mph NE6.4 kmh NE -- 29.33 in993.2 mb 0.00 in0.0 mm 0.00 in0.0 mm 0.01 in0.3 mm
07:06 PM 32.5°F0.3°C 32.3°F0.2°C 99% 4.0 mph E6.4 kmh E -- 29.34 in993.6 mb 0.00 in0.0 mm 0.00 in0.0 mm 0.01 in0.3 mm
07:01 PM 32.5°F0.3°C 32.3°F0.2°C 99% 4.0 mph ESE6.4 kmh ESE -- 29.33 in993.2 mb 0.00 in0.0 mm 0.00 in0.0 mm 0.01 in0.3 mm
06:56 PM 32.5°F0.3°C 32.3°F0.2°C 99% 6.0 mph SE9.7 kmh SE -- 29.34 in993.6 mb 0.00 in0.0 mm 0.00 in0.0 mm 0.01 in0.3 mm
06:46 PM 32.5°F0.3°C 32.3°F0.2°C 99% 4.0 mph ESE6.4 kmh ESE -- 29.34 in993.6 mb 0.00 in0.0 mm 0.00 in0.0 mm 0.01 in0.3 mm
06:41 PM 32.5°F0.3°C 32.3°F0.2°C 99% 3.0 mph E4.8 kmh E -- 29.35 in993.9 mb 0.00 in0.0 mm 0.00 in0.0 mm 0.01 in0.3 mm
06:36 PM 32.5°F0.3°C 32.3°F0.2°C 99% 7.0 mph ESE11.3 kmh ESE -- 29.35 in993.9 mb 0.00 in0.0 mm 0.00 in0.0 mm 0.01 in0.3 mm
06:31 PM 32.5°F0.3°C 32.3°F0.2°C 99% 7.0 mph ESE11.3 kmh ESE -- 29.34 in993.6 mb 0.00 in0.0 mm 0.00 in0.0 mm 0.01 in0.3 mm
06:26 PM 32.5°F0.3°C 32.3°F0.2°C 99% 8.0 mph ESE12.9 kmh ESE -- 29.34 in993.6 mb 0.00 in0.0 mm 0.00 in0.0 mm 0.01 in0.3 mm
06:21 PM 32.5°F0.3°C 32.3°F0.2°C 99% 7.0 mph ESE11.3 kmh ESE -- 29.35 in993.9 mb 0.00 in0.0 mm 0.00 in0.0 mm 0.01 in0.3 mm
06:16 PM 32.5°F0.3°C 32.3°F0.2°C 99% 9.0 mph ESE14.5 kmh ESE -- 29.35 in993.9 mb 0.00 in0.0 mm 0.00 in0.0 mm 0.01 in0.3 mm
06:11 PM 32.5°F0.3°C 32.3°F0.2°C 99% 7.0 mph ESE11.3 kmh ESE -- 29.34 in993.6 mb 0.00 in0.0 mm 0.00 in0.0 mm 0.01 in0.3 mm
06:06 PM 32.4°F0.2°C 32.1°F0.1°C 99% 3.0 mph E4.8 kmh E -- 29.34 in993.6 mb 0.00 in0.0 mm 0.00 in0.0 mm 0.01 in0.3 mm
06:01 PM 32.2°F0.1°C 31.9°F-0.1°C 99% 3.0 mph ESE4.8 kmh ESE -- 29.35 in993.9 mb 0.00 in0.0 mm 0.00 in0.0 mm 0.01 in0.3 mm
05:56 PM 32.2°F0.1°C 31.9°F-0.1°C 99% 6.0 mph SSW9.7 kmh SSW -- 29.35 in993.9 mb 0.00 in0.0 mm 0.00 in0.0 mm 0.01 in0.3 mm
05:51 PM 32.0°F0.0°C 31.7°F-0.2°C 99% 3.0 mph SE4.8 kmh SE -- 29.34 in993.6 mb 0.00 in0.0 mm 0.00 in0.0 mm 0.01 in0.3 mm
05:46 PM 32.0°F0.0°C 31.7°F-0.2°C 99% 5.0 mph ESE8.0 kmh ESE -- 29.34 in993.6 mb 0.00 in0.0 mm 0.00 in0.0 mm 0.01 in0.3 mm
05:41 PM 32.0°F0.0°C 31.7°F-0.2°C 99% 9.0 mph E14.5 kmh E -- 29.35 in993.9 mb 0.00 in0.0 mm 0.00 in0.0 mm 0.01 in0.3 mm
05:36 PM 32.0°F0.0°C 31.7°F-0.2°C 99% 6.0 mph ENE9.7 kmh ENE -- 29.35 in993.9 mb 0.00 in0.0 mm 0.00 in0.0 mm 0.01 in0.3 mm
05:31 PM 32.0°F0.0°C 31.7°F-0.2°C 99% 6.0 mph NE9.7 kmh NE -- 29.35 in993.9 mb 0.00 in0.0 mm 0.00 in0.0 mm 0.01 in0.3 mm
05:26 PM 32.0°F0.0°C 31.7°F-0.2°C 99% 10.0 mph ESE16.1 kmh ESE -- 29.35 in993.9 mb 0.00 in0.0 mm 0.00 in0.0 mm 0.01 in0.3 mm
05:21 PM 32.0°F0.0°C 31.7°F-0.2°C 99% 7.0 mph E11.3 kmh E -- 29.36 in994.2 mb 0.00 in0.0 mm 0.00 in0.0 mm 0.01 in0.3 mm
05:16 PM 32.2°F0.1°C 31.9°F-0.1°C 99% 7.0 mph ESE11.3 kmh ESE -- 29.36 in994.2 mb 0.00 in0.0 mm 0.00 in0.0 mm 0.01 in0.3 mm
05:11 PM 32.2°F0.1°C 31.9°F-0.1°C 99% 8.0 mph E12.9 kmh E -- 29.38 in994.9 mb 0.00 in0.0 mm 0.00 in0.0 mm 0.01 in0.3 mm
05:06 PM 32.2°F0.1°C 31.9°F-0.1°C 99% 6.0 mph E9.7 kmh E -- 29.38 in994.9 mb 0.00 in0.0 mm 0.00 in0.0 mm 0.01 in0.3 mm
05:01 PM 32.2°F0.1°C 31.9°F-0.1°C 99% 8.0 mph ESE12.9 kmh ESE -- 29.39 in995.3 mb 0.00 in0.0 mm 0.00 in0.0 mm 0.01 in0.3 mm
04:56 PM 32.2°F0.1°C 31.9°F-0.1°C 99% 10.0 mph E16.1 kmh E -- 29.40 in995.6 mb 0.00 in0.0 mm 0.00 in0.0 mm 0.01 in0.3 mm
04:51 PM 32.2°F0.1°C 31.9°F-0.1°C 99% 5.0 mph ESE8.0 kmh ESE -- 29.40 in995.6 mb 0.00 in0.0 mm 0.00 in0.0 mm 0.01 in0.3 mm
04:46 PM 32.2°F0.1°C 31.9°F-0.1°C 99% 10.0 mph E16.1 kmh E -- 29.41 in995.9 mb 0.00 in0.0 mm 0.00 in0.0 mm 0.01 in0.3 mm
04:41 PM 32.2°F0.1°C 31.9°F-0.1°C 99% 5.0 mph ESE8.0 kmh ESE -- 29.41 in995.9 mb 0.00 in0.0 mm 0.00 in0.0 mm 0.01 in0.3 mm
04:36 PM 32.2°F0.1°C 31.9°F-0.1°C 99% 11.0 mph SW17.7 kmh SW -- 29.41 in995.9 mb 0.00 in0.0 mm 0.00 in0.0 mm 0.01 in0.3 mm
04:31 PM 32.2°F0.1°C 31.9°F-0.1°C 99% 4.0 mph ESE6.4 kmh ESE -- 29.41 in995.9 mb 0.00 in0.0 mm 0.00 in0.0 mm 0.01 in0.3 mm
04:26 PM 32.0°F0.0°C 31.7°F-0.2°C 99% 2.0 mph S3.2 kmh S -- 29.41 in995.9 mb 0.00 in0.0 mm 0.00 in0.0 mm 0.01 in0.3 mm
04:21 PM 32.0°F0.0°C 31.7°F-0.2°C 99% 7.0 mph ESE11.3 kmh ESE -- 29.40 in995.6 mb 0.00 in0.0 mm 0.00 in0.0 mm 0.01 in0.3 mm
04:16 PM 32.0°F0.0°C 31.7°F-0.2°C 99% 11.0 mph ESE17.7 kmh ESE -- 29.40 in995.6 mb 0.00 in0.0 mm 0.00 in0.0 mm 0.01 in0.3 mm
04:11 PM 32.0°F0.0°C 31.7°F-0.2°C 99% 9.0 mph ESE14.5 kmh ESE -- 29.39 in995.3 mb 0.00 in0.0 mm 0.00 in0.0 mm 0.01 in0.3 mm
04:06 PM 32.0°F0.0°C 31.7°F-0.2°C 99% 10.0 mph E16.1 kmh E -- 29.38 in994.9 mb 0.00 in0.0 mm 0.00 in0.0 mm 0.01 in0.3 mm
04:01 PM 32.0°F0.0°C 31.7°F-0.2°C 99% 11.0 mph NE17.7 kmh NE -- 29.37 in994.6 mb 0.00 in0.0 mm 0.00 in0.0 mm 0.01 in0.3 mm
03:56 PM 32.0°F0.0°C 31.7°F-0.2°C 99% 8.0 mph E12.9 kmh E -- 29.36 in994.2 mb 0.00 in0.0 mm 0.00 in0.0 mm 0.01 in0.3 mm
03:51 PM 32.0°F0.0°C 31.7°F-0.2°C 99% 9.0 mph ESE14.5 kmh ESE -- 29.37 in994.6 mb 0.00 in0.0 mm 0.00 in0.0 mm 0.01 in0.3 mm
03:46 PM 32.0°F0.0°C 31.7°F-0.2°C 99% 17.0 mph ENE27.4 kmh ENE -- 29.38 in994.9 mb 0.00 in0.0 mm 0.00 in0.0 mm 0.01 in0.3 mm
03:41 PM 32.0°F0.0°C 31.7°F-0.2°C 99% 18.0 mph ESE29.0 kmh ESE -- 29.40 in995.6 mb 0.00 in0.0 mm 0.00 in0.0 mm 0.01 in0.3 mm
03:36 PM 32.0°F0.0°C 31.7°F-0.2°C 99% 11.0 mph E17.7 kmh E -- 29.41 in995.9 mb 0.00 in0.0 mm 0.00 in0.0 mm 0.01 in0.3 mm
03:31 PM 31.6°F-0.2°C 31.4°F-0.3°C 99% 4.0 mph ESE6.4 kmh ESE -- 29.42 in996.3 mb 0.00 in0.0 mm 0.00 in0.0 mm 0.01 in0.3 mm
03:26 PM 31.5°F-0.3°C 31.2°F-0.4°C 99% 8.0 mph ESE12.9 kmh ESE -- 29.42 in996.3 mb 0.00 in0.0 mm 0.00 in0.0 mm 0.01 in0.3 mm
03:21 PM 31.5°F-0.3°C 31.2°F-0.4°C 99% 15.0 mph E24.1 kmh E -- 29.43 in996.6 mb 0.00 in0.0 mm 0.00 in0.0 mm 0.01 in0.3 mm
03:16 PM 31.5°F-0.3°C 31.2°F-0.4°C 99% 15.0 mph E24.1 kmh E -- 29.45 in997.3 mb 0.00 in0.0 mm 0.00 in0.0 mm 0.01 in0.3 mm
03:11 PM 31.5°F-0.3°C 31.2°F-0.4°C 99% 7.0 mph ESE11.3 kmh ESE -- 29.45 in997.3 mb 0.00 in0.0 mm 0.00 in0.0 mm 0.01 in0.3 mm
03:06 PM 31.3°F-0.4°C 31.0°F-0.6°C 99% 8.0 mph W12.9 kmh W -- 29.46 in997.6 mb 0.00 in0.0 mm 0.00 in0.0 mm 0.01 in0.3 mm
03:01 PM 31.3°F-0.4°C 31.0°F-0.6°C 99% 10.0 mph E16.1 kmh E -- 29.46 in997.6 mb 0.00 in0.0 mm 0.00 in0.0 mm 0.01 in0.3 mm
02:56 PM 31.1°F-0.5°C 30.8°F-0.7°C 99% 7.0 mph ESE11.3 kmh ESE -- 29.48 in998.3 mb 0.00 in0.0 mm 0.00 in0.0 mm 0.01 in0.3 mm
02:51 PM 31.1°F-0.5°C 30.8°F-0.7°C 99% 8.0 mph NNE12.9 kmh NNE -- 29.47 in998.0 mb 0.00 in0.0 mm 0.00 in0.0 mm 0.01 in0.3 mm
02:46 PM 31.1°F-0.5°C 30.8°F-0.7°C 99% 6.0 mph SSE9.7 kmh SSE -- 29.46 in997.6 mb 0.00 in0.0 mm 0.00 in0.0 mm 0.01 in0.3 mm
02:41 PM 30.9°F-0.6°C 30.7°F-0.7°C 99% 2.0 mph ESE3.2 kmh ESE -- 29.47 in998.0 mb 0.00 in0.0 mm 0.00 in0.0 mm 0.01 in0.3 mm
02:36 PM 30.7°F-0.7°C 30.5°F-0.8°C 99% 10.0 mph ENE16.1 kmh ENE -- 29.48 in998.3 mb 0.00 in0.0 mm 0.00 in0.0 mm 0.01 in0.3 mm
02:31 PM 30.7°F-0.7°C 30.5°F-0.8°C 99% 19.0 mph SSW30.6 kmh SSW -- 29.48 in998.3 mb 0.00 in0.0 mm 0.00 in0.0 mm 0.01 in0.3 mm
02:26 PM 30.6°F-0.8°C 30.3°F-0.9°C 99% 9.0 mph 14.5 kmh -- 29.49 in998.6 mb 0.00 in0.0 mm 0.00 in0.0 mm 0.01 in0.3 mm
02:21 PM 30.6°F-0.8°C 30.3°F-0.9°C 99% 4.0 mph SE6.4 kmh SE -- 29.48 in998.3 mb 0.00 in0.0 mm 0.00 in0.0 mm 0.01 in0.3 mm
02:16 PM 30.7°F-0.7°C 30.5°F-0.8°C 99% 6.0 mph ESE9.7 kmh ESE -- 29.49 in998.6 mb 0.00 in0.0 mm 0.00 in0.0 mm 0.01 in0.3 mm
02:11 PM 30.7°F-0.7°C 30.5°F-0.8°C 99% 10.0 mph ENE16.1 kmh ENE -- 29.50 in999.0 mb 0.00 in0.0 mm 0.00 in0.0 mm 0.01 in0.3 mm
02:06 PM 30.9°F-0.6°C 30.7°F-0.7°C 99% 3.0 mph SSE4.8 kmh SSE -- 29.50 in999.0 mb 0.00 in0.0 mm 0.00 in0.0 mm 0.01 in0.3 mm
02:01 PM 30.9°F-0.6°C 30.7°F-0.7°C 99% 8.0 mph NE12.9 kmh NE -- 29.50 in999.0 mb 0.00 in0.0 mm 0.00 in0.0 mm 0.01 in0.3 mm
01:56 PM 30.7°F-0.7°C 30.5°F-0.8°C 99% 8.0 mph ESE12.9 kmh ESE -- 29.52 in999.7 mb 0.00 in0.0 mm 0.00 in0.0 mm 0.01 in0.3 mm
01:51 PM 30.7°F-0.7°C 30.5°F-0.8°C 99% 9.0 mph ESE14.5 kmh ESE -- 29.54 in1000.3 mb 0.00 in0.0 mm 0.00 in0.0 mm 0.01 in0.3 mm
01:46 PM 30.7°F-0.7°C 30.5°F-0.8°C 99% 9.0 mph NE14.5 kmh NE -- 29.55 in1000.7 mb 0.00 in0.0 mm 0.00 in0.0 mm 0.01 in0.3 mm
01:41 PM 30.7°F-0.7°C 30.5°F-0.8°C 99% 4.0 mph E6.4 kmh E -- 29.56 in1001.0 mb 0.00 in0.0 mm 0.00 in0.0 mm 0.01 in0.3 mm
01:36 PM 30.7°F-0.7°C 30.5°F-0.8°C 99% 6.0 mph SE9.7 kmh SE -- 29.57 in1001.4 mb 0.00 in0.0 mm 0.00 in0.0 mm 0.01 in0.3 mm
01:31 PM 30.7°F-0.7°C 30.5°F-0.8°C 99% 8.0 mph SE12.9 kmh SE -- 29.58 in1001.7 mb 0.00 in0.0 mm 0.00 in0.0 mm 0.01 in0.3 mm
01:26 PM 30.7°F-0.7°C 30.5°F-0.8°C 99% 5.0 mph ENE8.0 kmh ENE -- 29.60 in1002.4 mb 0.00 in0.0 mm 0.00 in0.0 mm 0.01 in0.3 mm
01:21 PM 30.6°F-0.8°C 30.3°F-0.9°C 99% 9.0 mph WSW14.5 kmh WSW -- 29.60 in1002.4 mb 0.00 in0.0 mm 0.00 in0.0 mm 0.01 in0.3 mm
01:16 PM 30.6°F-0.8°C 30.3°F-0.9°C 99% 7.0 mph SE11.3 kmh SE -- 29.61 in1002.7 mb 0.00 in0.0 mm 0.00 in0.0 mm 0.01 in0.3 mm
01:11 PM 30.6°F-0.8°C 30.3°F-0.9°C 99% 7.0 mph ESE11.3 kmh ESE -- 29.63 in1003.4 mb 0.00 in0.0 mm 0.00 in0.0 mm 0.01 in0.3 mm
01:06 PM 30.6°F-0.8°C 30.3°F-0.9°C 99% 10.0 mph E16.1 kmh E -- 29.65 in1004.1 mb 0.00 in0.0 mm 0.00 in0.0 mm 0.01 in0.3 mm
01:01 PM 30.6°F-0.8°C 30.3°F-0.9°C 99% 6.0 mph ESE9.7 kmh ESE -- 29.66 in1004.4 mb 0.00 in0.0 mm 0.00 in0.0 mm 0.01 in0.3 mm
12:56 PM 30.6°F-0.8°C 30.1°F-1.1°C 98% 16.0 mph E25.7 kmh E -- 29.67 in1004.7 mb 0.00 in0.0 mm 0.00 in0.0 mm 0.01 in0.3 mm
12:51 PM 30.6°F-0.8°C 30.1°F-1.1°C 98% 10.0 mph E16.1 kmh E -- 29.67 in1004.7 mb 0.00 in0.0 mm 0.00 in0.0 mm 0.01 in0.3 mm
12:46 PM 30.6°F-0.8°C 30.1°F-1.1°C 98% 8.0 mph ENE12.9 kmh ENE -- 29.68 in1005.1 mb 0.00 in0.0 mm 0.00 in0.0 mm 0.01 in0.3 mm
12:41 PM 30.6°F-0.8°C 29.8°F-1.2°C 97% 14.0 mph ENE22.5 kmh ENE -- 29.69 in1005.4 mb 0.00 in0.0 mm 0.00 in0.0 mm 0.01 in0.3 mm
12:36 PM 30.6°F-0.8°C 30.1°F-1.1°C 98% 12.0 mph ESE19.3 kmh ESE -- 29.69 in1005.4 mb 0.00 in0.0 mm 0.00 in0.0 mm 0.01 in0.3 mm
12:31 PM 30.6°F-0.8°C 30.1°F-1.1°C 98% 9.0 mph ESE14.5 kmh ESE -- 29.70 in1005.8 mb 0.00 in0.0 mm 0.00 in0.0 mm 0.01 in0.3 mm
12:26 PM 30.6°F-0.8°C 29.8°F-1.2°C 97% 10.0 mph E16.1 kmh E -- 29.70 in1005.8 mb 0.00 in0.0 mm 0.00 in0.0 mm 0.01 in0.3 mm
12:21 PM 30.4°F-0.9°C 29.6°F-1.3°C 97% 11.0 mph E17.7 kmh E -- 29.72 in1006.4 mb 0.00 in0.0 mm 0.00 in0.0 mm 0.01 in0.3 mm
12:16 PM 30.4°F-0.9°C 29.9°F-1.2°C 98% 8.0 mph E12.9 kmh E -- 29.72 in1006.4 mb 0.00 in0.0 mm 0.00 in0.0 mm 0.01 in0.3 mm
12:11 PM 30.2°F-1.0°C 29.9°F-1.2°C 99% 7.0 mph ESE11.3 kmh ESE -- 29.74 in1007.1 mb 0.00 in0.0 mm 0.00 in0.0 mm 0.01 in0.3 mm
12:06 PM 30.2°F-1.0°C 29.9°F-1.2°C 99% 6.0 mph ESE9.7 kmh ESE -- 29.75 in1007.5 mb 0.00 in0.0 mm 0.00 in0.0 mm 0.01 in0.3 mm
12:01 PM 29.8°F-1.2°C 29.3°F-1.5°C 98% 5.0 mph ESE8.0 kmh ESE -- 29.75 in1007.5 mb 0.00 in0.0 mm 0.00 in0.0 mm 0.01 in0.3 mm
11:56 AM 29.7°F-1.3°C 29.4°F-1.4°C 99% 3.0 mph SSW4.8 kmh SSW -- 29.76 in1007.8 mb 0.00 in0.0 mm 0.00 in0.0 mm 0.01 in0.3 mm
11:51 AM 29.5°F-1.4°C 29.2°F-1.6°C 99% 6.0 mph SE9.7 kmh SE -- 29.77 in1008.1 mb 0.00 in0.0 mm 0.00 in0.0 mm 0.01 in0.3 mm
11:46 AM 29.7°F-1.3°C 29.2°F-1.6°C 98% 6.0 mph S9.7 kmh S -- 29.79 in1008.8 mb 0.00 in0.0 mm 0.00 in0.0 mm 0.01 in0.3 mm
11:41 AM 29.7°F-1.3°C 28.9°F-1.7°C 97% 12.0 mph ESE19.3 kmh ESE -- 29.79 in1008.8 mb 0.00 in0.0 mm 0.00 in0.0 mm 0.01 in0.3 mm
11:36 AM 29.8°F-1.2°C 28.8°F-1.8°C 96% 5.0 mph NE8.0 kmh NE -- 29.80 in1009.1 mb 0.00 in0.0 mm 0.00 in0.0 mm 0.01 in0.3 mm
11:31 AM 30.0°F-1.1°C 28.5°F-1.9°C 94% 7.0 mph E11.3 kmh E -- 29.80 in1009.1 mb 0.00 in0.0 mm 0.00 in0.0 mm 0.01 in0.3 mm
11:26 AM 30.4°F-0.9°C 28.6°F-1.9°C 93% 11.0 mph E17.7 kmh E -- 29.82 in1009.8 mb 0.00 in0.0 mm 0.00 in0.0 mm 0.01 in0.3 mm
11:21 AM 30.6°F-0.8°C 28.8°F-1.8°C 93% 6.0 mph E9.7 kmh E -- 29.83 in1010.2 mb 0.00 in0.0 mm 0.00 in0.0 mm 0.01 in0.3 mm
11:16 AM 30.6°F-0.8°C 28.2°F-2.1°C 91% 11.0 mph SSE17.7 kmh SSE -- 29.83 in1010.2 mb 0.00 in0.0 mm 0.00 in0.0 mm 0.01 in0.3 mm
11:11 AM 30.7°F-0.7°C 28.4°F-2.0°C 91% 5.0 mph E8.0 kmh E -- 29.84 in1010.5 mb 0.00 in0.0 mm 0.00 in0.0 mm 0.01 in0.3 mm
11:06 AM 30.7°F-0.7°C 28.1°F-2.2°C 90% 3.0 mph NNW4.8 kmh NNW -- 29.84 in1010.5 mb 0.00 in0.0 mm 0.00 in0.0 mm 0.01 in0.3 mm
11:01 AM 30.9°F-0.6°C 28.0°F-2.2°C 89% 9.0 mph E14.5 kmh E -- 29.84 in1010.5 mb 0.00 in0.0 mm 0.00 in0.0 mm 0.01 in0.3 mm
10:56 AM 31.1°F-0.5°C 27.9°F-2.3°C 88% 10.0 mph E16.1 kmh E -- 29.85 in1010.8 mb 0.00 in0.0 mm 0.00 in0.0 mm 0.01 in0.3 mm
10:51 AM 31.3°F-0.4°C 27.8°F-2.3°C 87% 10.0 mph ESE16.1 kmh ESE -- 29.85 in1010.8 mb 0.00 in0.0 mm 0.00 in0.0 mm 0.01 in0.3 mm
10:46 AM 31.5°F-0.3°C 28.0°F-2.2°C 87% 10.0 mph ESE16.1 kmh ESE -- 29.85 in1010.8 mb 0.00 in0.0 mm 0.00 in0.0 mm 0.01 in0.3 mm
10:41 AM 31.6°F-0.2°C 27.6°F-2.4°C 85% 6.0 mph ESE9.7 kmh ESE -- 29.85 in1010.8 mb 0.00 in0.0 mm 0.00 in0.0 mm 0.01 in0.3 mm
10:36 AM 31.8°F-0.1°C 27.2°F-2.7°C 83% 9.0 mph SE14.5 kmh SE -- 29.86 in1011.2 mb 0.00 in0.0 mm 0.00 in0.0 mm 0.01 in0.3 mm
10:31 AM 31.8°F-0.1°C 26.9°F-2.8°C 82% 6.0 mph SE9.7 kmh SE -- 29.85 in1010.8 mb 0.00 in0.0 mm 0.00 in0.0 mm 0.01 in0.3 mm
10:26 AM 31.8°F-0.1°C 26.9°F-2.8°C 82% 7.0 mph E11.3 kmh E -- 29.85 in1010.8 mb 0.00 in0.0 mm 0.00 in0.0 mm 0.01 in0.3 mm
10:21 AM 31.8°F-0.1°C 26.6°F-3.0°C 81% 6.0 mph ESE9.7 kmh ESE -- 29.86 in1011.2 mb 0.00 in0.0 mm 0.00 in0.0 mm 0.01 in0.3 mm
10:16 AM 31.8°F-0.1°C 26.6°F-3.0°C 81% 11.0 mph NE17.7 kmh NE -- 29.86 in1011.2 mb 0.00 in0.0 mm 0.00 in0.0 mm 0.01 in0.3 mm
10:11 AM 32.0°F0.0°C 26.8°F-2.9°C 81% 12.0 mph E19.3 kmh E -- 29.86 in1011.2 mb 0.00 in0.0 mm 0.00 in0.0 mm 0.01 in0.3 mm
10:06 AM 32.0°F0.0°C 26.8°F-2.9°C 81% 15.0 mph S24.1 kmh S -- 29.87 in1011.5 mb 0.00 in0.0 mm 0.00 in0.0 mm 0.01 in0.3 mm
10:01 AM 32.0°F0.0°C 26.8°F-2.9°C 81% 12.0 mph ESE19.3 kmh ESE -- 29.87 in1011.5 mb 0.00 in0.0 mm 0.00 in0.0 mm 0.01 in0.3 mm
09:56 AM 32.0°F0.0°C 26.8°F-2.9°C 81% 9.0 mph ESE14.5 kmh ESE -- 29.88 in1011.9 mb 0.00 in0.0 mm 0.00 in0.0 mm 0.01 in0.3 mm
09:51 AM 32.0°F0.0°C 26.8°F-2.9°C 81% 15.0 mph E24.1 kmh E -- 29.89 in1012.2 mb 0.00 in0.0 mm 0.00 in0.0 mm 0.01 in0.3 mm
09:46 AM 32.0°F0.0°C 26.8°F-2.9°C 81% 5.0 mph ESE8.0 kmh ESE -- 29.89 in1012.2 mb 0.00 in0.0 mm 0.00 in0.0 mm 0.01 in0.3 mm
09:41 AM 32.2°F0.1°C 26.9°F-2.8°C 81% 7.0 mph ESE11.3 kmh ESE -- 29.89 in1012.2 mb 0.00 in0.0 mm 0.00 in0.0 mm 0.01 in0.3 mm
09:36 AM 32.2°F0.1°C 26.9°F-2.8°C 81% 3.0 mph W4.8 kmh W -- 29.89 in1012.2 mb 0.00 in0.0 mm 0.00 in0.0 mm 0.01 in0.3 mm
09:31 AM 32.2°F0.1°C 26.9°F-2.8°C 81% 9.0 mph ESE14.5 kmh ESE -- 29.90 in1012.5 mb 0.00 in0.0 mm 0.00 in0.0 mm 0.01 in0.3 mm
09:26 AM 32.2°F0.1°C 26.6°F-3.0°C 80% 7.0 mph SE11.3 kmh SE -- 29.91 in1012.9 mb 0.00 in0.0 mm 0.00 in0.0 mm 0.01 in0.3 mm
09:21 AM 32.4°F0.2°C 26.8°F-2.9°C 80% 6.0 mph ESE9.7 kmh ESE -- 29.91 in1012.9 mb 0.00 in0.0 mm 0.00 in0.0 mm 0.01 in0.3 mm
09:16 AM 32.4°F0.2°C 26.8°F-2.9°C 80% 11.0 mph E17.7 kmh E -- 29.92 in1013.2 mb 0.00 in0.0 mm 0.00 in0.0 mm 0.01 in0.3 mm
09:11 AM 32.5°F0.3°C 27.0°F-2.8°C 80% 8.0 mph E12.9 kmh E -- 29.92 in1013.2 mb 0.00 in0.0 mm 0.00 in0.0 mm 0.01 in0.3 mm
09:06 AM 32.5°F0.3°C 27.0°F-2.8°C 80% 11.0 mph ESE17.7 kmh ESE -- 29.92 in1013.2 mb 0.00 in0.0 mm 0.00 in0.0 mm 0.01 in0.3 mm
09:01 AM 32.7°F0.4°C 27.2°F-2.7°C 80% 5.0 mph E8.0 kmh E -- 29.92 in1013.2 mb 0.00 in0.0 mm 0.00 in0.0 mm 0.01 in0.3 mm
08:56 AM 32.7°F0.4°C 27.2°F-2.7°C 80% 10.0 mph E16.1 kmh E -- 29.93 in1013.5 mb 0.00 in0.0 mm 0.00 in0.0 mm 0.01 in0.3 mm
08:51 AM 32.7°F0.4°C 27.2°F-2.7°C 80% 8.0 mph SSE12.9 kmh SSE -- 29.94 in1013.9 mb 0.01 in0.3 mm 0.00 in0.0 mm 0.01 in0.3 mm
08:46 AM 32.7°F0.4°C 26.8°F-2.9°C 79% 4.0 mph ESE6.4 kmh ESE -- 29.92 in1013.2 mb 0.01 in0.3 mm 0.00 in0.0 mm 0.01 in0.3 mm
08:41 AM 32.7°F0.4°C 26.8°F-2.9°C 79% 11.0 mph W17.7 kmh W -- 29.93 in1013.5 mb 0.01 in0.3 mm 0.00 in0.0 mm 0.01 in0.3 mm
08:36 AM 32.9°F0.5°C 27.0°F-2.8°C 79% 6.0 mph NE9.7 kmh NE -- 29.94 in1013.9 mb 0.01 in0.3 mm 0.00 in0.0 mm 0.01 in0.3 mm
08:31 AM 32.9°F0.5°C 27.0°F-2.8°C 79% 6.0 mph E9.7 kmh E -- 29.94 in1013.9 mb 0.01 in0.3 mm 0.00 in0.0 mm 0.01 in0.3 mm
08:26 AM 32.9°F0.5°C 27.0°F-2.8°C 79% 6.0 mph SSE9.7 kmh SSE -- 29.95 in1014.2 mb 0.01 in0.3 mm 0.00 in0.0 mm 0.01 in0.3 mm
08:21 AM 32.9°F0.5°C 27.0°F-2.8°C 79% 14.0 mph ESE22.5 kmh ESE -- 29.95 in1014.2 mb 0.01 in0.3 mm 0.00 in0.0 mm 0.01 in0.3 mm
08:16 AM 32.9°F0.5°C 27.3°F-2.6°C 80% 2.0 mph 3.2 kmh -- 29.96 in1014.6 mb 0.01 in0.3 mm 0.00 in0.0 mm 0.01 in0.3 mm
08:11 AM 32.9°F0.5°C 27.3°F-2.6°C 80% 5.0 mph NE8.0 kmh NE -- 29.96 in1014.6 mb 0.01 in0.3 mm 0.00 in0.0 mm 0.01 in0.3 mm
08:06 AM 32.9°F0.5°C 27.6°F-2.4°C 81% 8.0 mph ESE12.9 kmh ESE -- 29.97 in1014.9 mb 0.01 in0.3 mm 0.00 in0.0 mm 0.01 in0.3 mm
08:01 AM 32.9°F0.5°C 27.6°F-2.4°C 81% 7.0 mph E11.3 kmh E -- 29.98 in1015.2 mb 0.01 in0.3 mm 0.00 in0.0 mm 0.01 in0.3 mm
07:56 AM 32.9°F0.5°C 27.6°F-2.4°C 81% 5.0 mph ESE8.0 kmh ESE -- 29.98 in1015.2 mb 0.01 in0.3 mm 0.12 in3.0 mm 0.01 in0.3 mm
07:51 AM 32.7°F0.4°C 27.8°F-2.3°C 82% 7.0 mph ESE11.3 kmh ESE -- 29.98 in1015.2 mb 0.00 in0.0 mm 0.00 in0.0 mm 0.00 in0.0 mm
07:46 AM 32.5°F0.3°C 27.9°F-2.3°C 83% 5.0 mph SSE8.0 kmh SSE -- 29.98 in1015.2 mb 0.00 in0.0 mm 0.00 in0.0 mm 0.00 in0.0 mm
07:41 AM 32.2°F0.1°C 28.1°F-2.2°C 85% 5.0 mph E8.0 kmh E -- 29.97 in1014.9 mb 0.00 in0.0 mm 0.00 in0.0 mm 0.00 in0.0 mm
07:36 AM 32.2°F0.1°C 28.1°F-2.2°C 85% 1.0 mph NNE1.6 kmh NNE -- 29.96 in1014.6 mb 0.00 in0.0 mm 0.00 in0.0 mm 0.00 in0.0 mm
07:31 AM 31.8°F-0.1°C 28.1°F-2.2°C 86% 2.0 mph SE3.2 kmh SE -- 29.97 in1014.9 mb 0.00 in0.0 mm 0.00 in0.0 mm 0.00 in0.0 mm
07:26 AM 31.6°F-0.2°C 28.2°F-2.1°C 87% 2.0 mph SSW3.2 kmh SSW -- 29.98 in1015.2 mb 0.00 in0.0 mm 0.00 in0.0 mm 0.00 in0.0 mm
07:21 AM 31.5°F-0.3°C 28.3°F-2.1°C 88% 1.0 mph NE1.6 kmh NE -- 29.98 in1015.2 mb 0.00 in0.0 mm 0.00 in0.0 mm 0.00 in0.0 mm
07:16 AM 31.1°F-0.5°C 28.2°F-2.1°C 89% 5.0 mph SW8.0 kmh SW -- 29.99 in1015.6 mb 0.00 in0.0 mm 0.00 in0.0 mm 0.00 in0.0 mm
07:11 AM 30.7°F-0.7°C 28.4°F-2.0°C 91% Calm Calm -- 29.99 in1015.6 mb 0.00 in0.0 mm 0.00 in0.0 mm 0.00 in0.0 mm
07:06 AM 30.6°F-0.8°C 28.5°F-1.9°C 92% 2.0 mph WNW3.2 kmh WNW -- 29.99 in1015.6 mb 0.00 in0.0 mm 0.00 in0.0 mm 0.00 in0.0 mm
07:01 AM 30.6°F-0.8°C 28.5°F-1.9°C 92% 1.0 mph E1.6 kmh E -- 29.99 in1015.6 mb 0.00 in0.0 mm 0.00 in0.0 mm 0.00 in0.0 mm
06:56 AM 30.6°F-0.8°C 28.5°F-1.9°C 92% 1.0 mph W1.6 kmh W -- 29.99 in1015.6 mb 0.00 in0.0 mm 0.00 in0.0 mm 0.00 in0.0 mm
06:51 AM 30.6°F-0.8°C 28.5°F-1.9°C 92% Calm Calm -- 30.00 in1015.9 mb 0.00 in0.0 mm 0.00 in0.0 mm 0.00 in0.0 mm
06:46 AM 30.6°F-0.8°C 28.5°F-1.9°C 92% 4.0 mph SE6.4 kmh SE -- 30.00 in1015.9 mb 0.00 in0.0 mm 0.00 in0.0 mm 0.00 in0.0 mm
06:41 AM 30.6°F-0.8°C 28.5°F-1.9°C 92% Calm Calm -- 30.00 in1015.9 mb 0.00 in0.0 mm 0.00 in0.0 mm 0.00 in0.0 mm
06:36 AM 30.6°F-0.8°C 28.5°F-1.9°C 92% 2.0 mph NNE3.2 kmh NNE -- 30.00 in1015.9 mb 0.00 in0.0 mm 0.00 in0.0 mm 0.00 in0.0 mm
06:31 AM 30.7°F-0.7°C 28.7°F-1.8°C 92% 1.0 mph ESE1.6 kmh ESE -- 30.01 in1016.3 mb 0.00 in0.0 mm 0.00 in0.0 mm 0.00 in0.0 mm
06:26 AM 30.7°F-0.7°C 28.7°F-1.8°C 92% 1.0 mph ENE1.6 kmh ENE -- 30.02 in1016.6 mb 0.00 in0.0 mm 0.00 in0.0 mm 0.00 in0.0 mm
06:21 AM 30.9°F-0.6°C 28.6°F-1.9°C 91% 1.0 mph ESE1.6 kmh ESE -- 30.02 in1016.6 mb 0.00 in0.0 mm 0.00 in0.0 mm 0.00 in0.0 mm
06:16 AM 30.9°F-0.6°C 28.6°F-1.9°C 91% 1.0 mph NNW1.6 kmh NNW -- 30.02 in1016.6 mb 0.00 in0.0 mm 0.00 in0.0 mm 0.00 in0.0 mm
06:11 AM 30.9°F-0.6°C 28.6°F-1.9°C 91% 2.0 mph S3.2 kmh S -- 30.04 in1017.3 mb 0.00 in0.0 mm 0.00 in0.0 mm 0.00 in0.0 mm
06:06 AM 31.1°F-0.5°C 28.7°F-1.8°C 91% 2.0 mph ESE3.2 kmh ESE -- 30.04 in1017.3 mb 0.00 in0.0 mm 0.00 in0.0 mm 0.00 in0.0 mm
06:01 AM 31.1°F-0.5°C 28.7°F-1.8°C 91% 2.0 mph WSW3.2 kmh WSW -- 30.04 in1017.3 mb 0.00 in0.0 mm 0.00 in0.0 mm 0.00 in0.0 mm
05:56 AM 31.3°F-0.4°C 28.7°F-1.8°C 90% 1.0 mph SE1.6 kmh SE -- 30.04 in1017.3 mb 0.00 in0.0 mm 0.00 in0.0 mm 0.00 in0.0 mm
05:51 AM 31.5°F-0.3°C 28.8°F-1.8°C 90% 1.0 mph SW1.6 kmh SW -- 30.05 in1017.6 mb 0.00 in0.0 mm 0.00 in0.0 mm 0.00 in0.0 mm
05:46 AM 31.5°F-0.3°C 28.8°F-1.8°C 90% 4.0 mph SSW6.4 kmh SSW -- 30.04 in1017.3 mb 0.00 in0.0 mm 0.00 in0.0 mm 0.00 in0.0 mm
05:41 AM 31.6°F-0.2°C 29.0°F-1.7°C 90% 1.0 mph S1.6 kmh S -- 30.03 in1016.9 mb 0.00 in0.0 mm 0.00 in0.0 mm 0.00 in0.0 mm
05:36 AM 31.6°F-0.2°C 29.0°F-1.7°C 90% 2.0 mph S3.2 kmh S -- 30.04 in1017.3 mb 0.00 in0.0 mm 0.00 in0.0 mm 0.00 in0.0 mm
05:31 AM 31.8°F-0.1°C 28.9°F-1.7°C 89% 2.0 mph NW3.2 kmh NW -- 30.05 in1017.6 mb 0.00 in0.0 mm 0.00 in0.0 mm 0.00 in0.0 mm
05:26 AM 32.2°F0.1°C 29.0°F-1.7°C 88% 1.0 mph S1.6 kmh S -- 30.05 in1017.6 mb 0.00 in0.0 mm 0.00 in0.0 mm 0.00 in0.0 mm
05:21 AM 32.4°F0.2°C 29.2°F-1.6°C 88% 1.0 mph W1.6 kmh W -- 30.04 in1017.3 mb 0.00 in0.0 mm 0.00 in0.0 mm 0.00 in0.0 mm
05:16 AM 32.7°F0.4°C 29.2°F-1.6°C 87% 1.0 mph ESE1.6 kmh ESE -- 30.05 in1017.6 mb 0.00 in0.0 mm 0.00 in0.0 mm 0.00 in0.0 mm
05:11 AM 33.3°F0.7°C 29.2°F-1.6°C 85% 1.0 mph WSW1.6 kmh WSW -- 30.04 in1017.3 mb 0.00 in0.0 mm 0.00 in0.0 mm 0.00 in0.0 mm
05:06 AM 33.6°F0.9°C 29.2°F-1.6°C 84% 1.0 mph WSW1.6 kmh WSW -- 30.05 in1017.6 mb 0.00 in0.0 mm 0.00 in0.0 mm 0.00 in0.0 mm
05:01 AM 34.2°F1.2°C 29.5°F-1.4°C 83% 1.0 mph NW1.6 kmh NW -- 30.05 in1017.6 mb 0.00 in0.0 mm 0.00 in0.0 mm 0.00 in0.0 mm
04:56 AM 34.5°F1.4°C 29.5°F-1.4°C 82% Calm Calm -- 30.05 in1017.6 mb 0.00 in0.0 mm 0.00 in0.0 mm 0.00 in0.0 mm
04:51 AM 34.7°F1.5°C 29.4°F-1.4°C 81% 1.0 mph W1.6 kmh W -- 30.06 in1017.9 mb 0.00 in0.0 mm 0.00 in0.0 mm 0.00 in0.0 mm
04:46 AM 34.9°F1.6°C 29.3°F-1.5°C 80% 1.0 mph NNE1.6 kmh NNE -- 30.07 in1018.3 mb 0.00 in0.0 mm 0.00 in0.0 mm 0.00 in0.0 mm
04:41 AM 35.4°F1.9°C 28.8°F-1.8°C 77% Calm Calm -- 30.06 in1017.9 mb 0.00 in0.0 mm 0.00 in0.0 mm 0.00 in0.0 mm
04:36 AM 35.4°F1.9°C 28.8°F-1.8°C 77% 4.0 mph WNW6.4 kmh WNW -- 30.06 in1017.9 mb 0.00 in0.0 mm 0.00 in0.0 mm 0.00 in0.0 mm
04:31 AM 35.4°F1.9°C 29.2°F-1.6°C 78% 5.0 mph ESE8.0 kmh ESE -- 30.06 in1017.9 mb 0.00 in0.0 mm 0.00 in0.0 mm 0.00 in0.0 mm
04:26 AM 35.4°F1.9°C 29.2°F-1.6°C 78% 7.0 mph E11.3 kmh E -- 30.06 in1017.9 mb 0.00 in0.0 mm 0.00 in0.0 mm 0.00 in0.0 mm
04:21 AM 35.4°F1.9°C 29.2°F-1.6°C 78% 5.0 mph ESE8.0 kmh ESE -- 30.07 in1018.3 mb 0.00 in0.0 mm 0.00 in0.0 mm 0.00 in0.0 mm
04:16 AM 35.4°F1.9°C 28.8°F-1.8°C 77% 5.0 mph ESE8.0 kmh ESE -- 30.07 in1018.3 mb 0.00 in0.0 mm 0.00 in0.0 mm 0.00 in0.0 mm
04:11 AM 35.4°F1.9°C 29.2°F-1.6°C 78% 6.0 mph S9.7 kmh S -- 30.07 in1018.3 mb 0.00 in0.0 mm 0.00 in0.0 mm 0.00 in0.0 mm
04:06 AM 35.4°F1.9°C 29.2°F-1.6°C 78% 4.0 mph E6.4 kmh E -- 30.07 in1018.3 mb 0.00 in0.0 mm 0.00 in0.0 mm 0.00 in0.0 mm
04:01 AM 35.4°F1.9°C 29.2°F-1.6°C 78% 3.0 mph SSW4.8 kmh SSW -- 30.07 in1018.3 mb 0.00 in0.0 mm 0.00 in0.0 mm 0.00 in0.0 mm
03:56 AM 35.4°F1.9°C 29.2°F-1.6°C 78% 1.0 mph NE1.6 kmh NE -- 30.08 in1018.6 mb 0.00 in0.0 mm 0.00 in0.0 mm 0.00 in0.0 mm
03:51 AM 35.4°F1.9°C 29.2°F-1.6°C 78% 1.0 mph W1.6 kmh W -- 30.08 in1018.6 mb 0.00 in0.0 mm 0.00 in0.0 mm 0.00 in0.0 mm
03:46 AM 35.4°F1.9°C 29.5°F-1.4°C 79% 5.0 mph E8.0 kmh E -- 30.07 in1018.3 mb 0.00 in0.0 mm 0.00 in0.0 mm 0.00 in0.0 mm
03:41 AM 35.4°F1.9°C 29.8°F-1.2°C 80% 2.0 mph ENE3.2 kmh ENE -- 30.07 in1018.3 mb 0.00 in0.0 mm 0.00 in0.0 mm 0.00 in0.0 mm
03:36 AM 35.4°F1.9°C 29.8°F-1.2°C 80% 3.0 mph ESE4.8 kmh ESE -- 30.08 in1018.6 mb 0.00 in0.0 mm 0.00 in0.0 mm 0.00 in0.0 mm
03:31 AM 35.4°F1.9°C 29.8°F-1.2°C 80% 4.0 mph SE6.4 kmh SE -- 30.07 in1018.3 mb 0.00 in0.0 mm 0.00 in0.0 mm 0.00 in0.0 mm
03:26 AM 35.4°F1.9°C 29.8°F-1.2°C 80% 2.0 mph ESE3.2 kmh ESE -- 30.08 in1018.6 mb 0.00 in0.0 mm 0.00 in0.0 mm 0.00 in0.0 mm
03:21 AM 35.4°F1.9°C 29.8°F-1.2°C 80% 3.0 mph NW4.8 kmh NW -- 30.08 in1018.6 mb 0.00 in0.0 mm 0.00 in0.0 mm 0.00 in0.0 mm
03:16 AM 35.6°F2.0°C 30.0°F-1.1°C 80% 1.0 mph SSE1.6 kmh SSE -- 30.08 in1018.6 mb 0.00 in0.0 mm 0.00 in0.0 mm 0.00 in0.0 mm
03:11 AM 35.6°F2.0°C 29.7°F-1.3°C 79% 2.0 mph SE3.2 kmh SE -- 30.08 in1018.6 mb 0.00 in0.0 mm 0.00 in0.0 mm 0.00 in0.0 mm
03:06 AM 35.6°F2.0°C 29.7°F-1.3°C 79% 3.0 mph ESE4.8 kmh ESE -- 30.08 in1018.6 mb 0.00 in0.0 mm 0.00 in0.0 mm 0.00 in0.0 mm
03:01 AM 35.6°F2.0°C 30.0°F-1.1°C 80% 2.0 mph E3.2 kmh E -- 30.08 in1018.6 mb 0.00 in0.0 mm 0.00 in0.0 mm 0.00 in0.0 mm
02:56 AM 35.6°F2.0°C 29.7°F-1.3°C 79% 3.0 mph W4.8 kmh W -- 30.08 in1018.6 mb 0.00 in0.0 mm 0.00 in0.0 mm 0.00 in0.0 mm
02:51 AM 35.4°F1.9°C 30.1°F-1.1°C 81% 7.0 mph ESE11.3 kmh ESE -- 30.08 in1018.6 mb 0.00 in0.0 mm 0.00 in0.0 mm 0.00 in0.0 mm
02:46 AM 35.2°F1.8°C 29.9°F-1.2°C 81% 5.0 mph ESE8.0 kmh ESE -- 30.08 in1018.6 mb 0.00 in0.0 mm 0.00 in0.0 mm 0.00 in0.0 mm
02:41 AM 34.5°F1.4°C 30.4°F-0.9°C 85% 7.0 mph ESE11.3 kmh ESE -- 30.08 in1018.6 mb 0.00 in0.0 mm 0.00 in0.0 mm 0.00 in0.0 mm
02:36 AM 33.4°F0.8°C 30.5°F-0.8°C 89% 5.0 mph SSW8.0 kmh SSW -- 30.09 in1019.0 mb 0.00 in0.0 mm 0.00 in0.0 mm 0.00 in0.0 mm
02:31 AM 33.4°F0.8°C 30.8°F-0.7°C 90% Calm Calm -- 30.09 in1019.0 mb 0.00 in0.0 mm 0.00 in0.0 mm 0.00 in0.0 mm
02:26 AM 33.6°F0.9°C 31.0°F-0.6°C 90% 1.0 mph NW1.6 kmh NW -- 30.09 in1019.0 mb 0.00 in0.0 mm 0.00 in0.0 mm 0.00 in0.0 mm
02:21 AM 33.8°F1.0°C 31.1°F-0.5°C 90% 1.0 mph SW1.6 kmh SW -- 30.10 in1019.3 mb 0.00 in0.0 mm 0.00 in0.0 mm 0.00 in0.0 mm
02:16 AM 33.8°F1.0°C 31.1°F-0.5°C 90% Calm Calm -- 30.10 in1019.3 mb 0.00 in0.0 mm 0.00 in0.0 mm 0.00 in0.0 mm
02:11 AM 34.0°F1.1°C 31.0°F-0.6°C 89% Calm Calm -- 30.10 in1019.3 mb 0.00 in0.0 mm 0.00 in0.0 mm 0.00 in0.0 mm
02:06 AM 34.3°F1.3°C 31.4°F-0.3°C 89% Calm Calm -- 30.10 in1019.3 mb 0.00 in0.0 mm 0.00 in0.0 mm 0.00 in0.0 mm
02:01 AM 34.5°F1.4°C 31.3°F-0.4°C 88% 1.0 mph WSW1.6 kmh WSW -- 30.11 in1019.6 mb 0.00 in0.0 mm 0.00 in0.0 mm 0.00 in0.0 mm
01:56 AM 34.9°F1.6°C 31.6°F-0.2°C 88% 1.0 mph WSW1.6 kmh WSW -- 30.12 in1020.0 mb 0.00 in0.0 mm 0.00 in0.0 mm 0.00 in0.0 mm
01:51 AM 35.2°F1.8°C 31.7°F-0.2°C 87% Calm Calm -- 30.11 in1019.6 mb 0.00 in0.0 mm 0.00 in0.0 mm 0.00 in0.0 mm
01:46 AM 35.4°F1.9°C 31.6°F-0.2°C 86% 1.0 mph NNE1.6 kmh NNE -- 30.11 in1019.6 mb 0.00 in0.0 mm 0.00 in0.0 mm 0.00 in0.0 mm
01:41 AM 35.6°F2.0°C 31.5°F-0.3°C 85% 1.0 mph ESE1.6 kmh ESE -- 30.12 in1020.0 mb 0.00 in0.0 mm 0.00 in0.0 mm 0.00 in0.0 mm
01:36 AM 35.6°F2.0°C 31.5°F-0.3°C 85% Calm Calm -- 30.12 in1020.0 mb 0.00 in0.0 mm 0.00 in0.0 mm 0.00 in0.0 mm
01:31 AM 35.6°F2.0°C 31.5°F-0.3°C 85% 4.0 mph ESE6.4 kmh ESE -- 30.11 in1019.6 mb 0.00 in0.0 mm 0.00 in0.0 mm 0.00 in0.0 mm
01:26 AM 35.6°F2.0°C 31.2°F-0.4°C 84% 2.0 mph SSW3.2 kmh SSW -- 30.11 in1019.6 mb 0.00 in0.0 mm 0.00 in0.0 mm 0.00 in0.0 mm
01:21 AM 35.4°F1.9°C 30.7°F-0.7°C 83% Calm Calm -- 30.11 in1019.6 mb 0.00 in0.0 mm 0.00 in0.0 mm 0.00 in0.0 mm
01:16 AM 35.4°F1.9°C 30.7°F-0.7°C 83% Calm Calm -- 30.12 in1020.0 mb 0.00 in0.0 mm 0.00 in0.0 mm 0.00 in0.0 mm
01:11 AM 35.6°F2.0°C 30.9°F-0.6°C 83% Calm Calm -- 30.12 in1020.0 mb 0.00 in0.0 mm 0.00 in0.0 mm 0.00 in0.0 mm
01:06 AM 35.8°F2.1°C 30.8°F-0.7°C 82% Calm Calm -- 30.12 in1020.0 mb 0.00 in0.0 mm 0.00 in0.0 mm 0.00 in0.0 mm
01:01 AM 36.0°F2.2°C 30.9°F-0.6°C 82% Calm Calm -- 30.11 in1019.6 mb 0.00 in0.0 mm 0.00 in0.0 mm 0.00 in0.0 mm
12:56 AM 36.1°F2.3°C 30.8°F-0.7°C 81% Calm Calm -- 30.12 in1020.0 mb 0.00 in0.0 mm 0.00 in0.0 mm 0.00 in0.0 mm
12:51 AM 36.3°F2.4°C 30.7°F-0.7°C 80% 1.0 mph W1.6 kmh W -- 30.12 in1020.0 mb 0.00 in0.0 mm 0.00 in0.0 mm 0.00 in0.0 mm
12:46 AM 36.5°F2.5°C 30.5°F-0.8°C 79% Calm Calm -- 30.12 in1020.0 mb 0.00 in0.0 mm 0.00 in0.0 mm 0.00 in0.0 mm
12:41 AM 36.7°F2.6°C 30.4°F-0.9°C 78% Calm Calm -- 30.11 in1019.6 mb 0.00 in0.0 mm 0.00 in0.0 mm 0.00 in0.0 mm
12:36 AM 36.9°F2.7°C 30.2°F-1.0°C 77% 2.0 mph SSW3.2 kmh SSW -- 30.11 in1019.6 mb 0.00 in0.0 mm 0.00 in0.0 mm 0.00 in0.0 mm
12:31 AM 37.0°F2.8°C 30.4°F-0.9°C 77% 3.0 mph ESE4.8 kmh ESE -- 30.11 in1019.6 mb 0.00 in0.0 mm 0.00 in0.0 mm 0.00 in0.0 mm
12:26 AM 37.0°F2.8°C 29.8°F-1.2°C 75% 1.0 mph S1.6 kmh S -- 30.11 in1019.6 mb 0.00 in0.0 mm 0.00 in0.0 mm 0.00 in0.0 mm
12:21 AM 37.2°F2.9°C 29.3°F-1.5°C 73% 2.0 mph E3.2 kmh E -- 30.11 in1019.6 mb 0.00 in0.0 mm 0.00 in0.0 mm 0.00 in0.0 mm
12:16 AM 37.2°F2.9°C 29.3°F-1.5°C 73% Calm Calm -- 30.11 in1019.6 mb 0.00 in0.0 mm 0.00 in0.0 mm 0.00 in0.0 mm
12:11 AM 37.2°F2.9°C 29.3°F-1.5°C 73% 4.0 mph ESE6.4 kmh ESE -- 30.11 in1019.6 mb 0.00 in0.0 mm 0.00 in0.0 mm 0.00 in0.0 mm
12:06 AM 37.4°F3.0°C 29.4°F-1.4°C 73% 2.0 mph SW3.2 kmh SW -- 30.12 in1020.0 mb 0.00 in0.0 mm 0.00 in0.0 mm 0.00 in0.0 mm
12:01 AM 37.4°F3.0°C 29.4°F-1.4°C 73% 1.0 mph S1.6 kmh S -- 30.12 in1020.0 mb 0.00 in0.0 mm 0.00 in0.0 mm 0.00 in0.0 mm